Time;durP1;ratioP1;P1;durP2;ratioP2;P2;SDS_P1;SDS_P2;PMS_P1;PMS_P2;Temp;Humidity;BMP_temperature;BMP_pressure;BME280_temperature;BME280_humidity;BME280_pressure;Samples;Min_cycle;Max_cycle;Signal;HPM_P1;HPM_P2
2022/03/10 16:09:14;;;;;;;;;;;;;;;8.01;22.55;101064.22;4539939;26;35529;-79
2022/03/10 16:11:41;;;;;;;;;;;;;;;7.88;23.24;101062.44;4400343;32;36079;-80
2022/03/10 16:14:09;;;;;;;;;;;;;;;7.47;23.00;101075.59;4383016;32;32911;-78
2022/03/10 16:16:36;;;;;;;;;;;;;;;7.07;23.45;101072.81;4383949;32;34321;-79
2022/03/10 16:19:04;;;;;;;;;;;;;;;6.81;23.83;101076.16;4388145;32;34253;-81
2022/03/10 16:21:32;;;;;;;;;;;;;;;6.78;23.85;101082.47;4403281;32;34974;-79
2022/03/10 16:23:59;;;;;;;;;;;;;;;6.63;23.98;101083.34;4400610;32;33298;-77
2022/03/10 16:26:27;;;;;;;;;;;;;;;6.65;24.01;101086.78;4392105;32;34605;-81
2022/03/10 16:28:55;;;;;;;;;;;;;;;6.25;24.65;101082.03;4379530;32;33662;-81
2022/03/10 16:31:22;;;;;;;;;;;;;;;5.90;25.26;101087.56;4407710;32;35404;-79
2022/03/10 16:33:50;;;;;;;;;;;;;;;5.54;25.75;101085.09;4401836;32;33418;-80
2022/03/10 16:36:19;;;;;;;;;;;;;;;5.73;25.58;101098.16;4411973;32;33125;-79
2022/03/10 16:38:46;;;;;;;;;;;;;;;5.58;25.35;101099.84;4396255;32;35336;-78
2022/03/10 16:41:14;;;;;;;;;;;;;;;5.15;25.87;101098.66;4402536;32;34113;-79
2022/03/10 16:43:41;;;;;;;;;;;;;;;5.15;25.90;101107.44;4396707;32;33258;-79
2022/03/10 16:46:08;;;;;;;;;;;;;;;5.18;25.89;101104.63;4385035;32;32071;-79
2022/03/10 16:48:36;;;;;;;;;;;;;;;4.87;26.59;101106.25;4381645;32;34087;-80
2022/03/10 16:51:04;;;;;;;;;;;;;;;4.93;26.38;101100.69;4386344;32;34452;-78
2022/03/10 16:53:34;;;;;;;;;;;;;;;4.84;26.43;101112.56;4399184;32;33064;-81
2022/03/10 16:56:02;;;;;;;;;;;;;;;4.90;27.26;101122.78;4398562;32;33888;-78
2022/03/10 16:58:31;;;;;;;;;;;;;;;4.64;27.00;101112.69;4385717;32;36261;-81
2022/03/10 17:00:59;;;;;;;;;;;;;;;4.35;27.27;101123.78;4405600;32;35818;-79
2022/03/10 17:03:27;;;;;;;;;;;;;;;4.47;27.25;101133.75;4403468;32;33533;-79
2022/03/10 17:05:54;;;;;;;;;;;;;;;4.51;27.07;101131.81;4400903;32;34510;-81
2022/03/10 17:08:24;;;;;;;;;;;;;;;4.53;27.00;101135.22;4413620;32;35309;-81
2022/03/10 17:10:54;;;;;;;;;;;;;;;4.29;27.32;101136.38;4412730;32;33872;-81
2022/03/10 17:13:22;;;;;;;;;;;;;;;4.56;26.79;101138.56;4411960;32;34295;-79
2022/03/10 17:15:49;;;;;;;;;;;;;;;4.16;27.69;101149.28;4391551;32;34862;-81
2022/03/10 17:18:18;;;;;;;;;;;;;;;3.98;28.59;101155.41;4406510;32;33229;-83
2022/03/10 17:20:46;;;;;;;;;;;;;;;4.22;27.30;101148.13;4392157;32;34256;-89
2022/03/10 17:23:13;;;;;;;;;;;;;;;3.90;27.68;101154.03;4414667;32;32631;-80
2022/03/10 17:25:41;;;;;;;;;;;;;;;3.72;28.15;101161.00;4401053;32;33943;-82
2022/03/10 17:28:08;;;;;;;;;;;;;;;3.59;28.43;101164.25;4393389;32;34764;-84
2022/03/10 17:30:35;;;;;;;;;;;;;;;3.80;27.83;101161.50;4400259;32;34230;-80
2022/03/10 17:33:03;;;;;;;;;;;;;;;3.64;28.37;101173.66;4410645;32;33451;-80
2022/03/10 17:35:30;;;;;;;;;;;;;;;3.46;28.79;101179.72;4398842;32;34398;-80
2022/03/10 17:38:00;;;;;;;;;;;;;;;3.87;28.22;101173.47;4379629;32;34977;-81
2022/03/10 17:40:30;;;;;;;;;;;;;;;3.98;28.24;101170.34;4393594;32;35001;-82
2022/03/10 17:42:57;;;;;;;;;;;;;;;3.68;28.46;101177.84;4402634;32;34204;-81
2022/03/10 17:45:26;;;;;;;;;;;;;;;3.19;29.53;101180.03;4364357;32;34374;-79
2022/03/10 17:47:53;;;;;;;;;;;;;;;3.43;28.85;101186.88;4377411;32;36258;-82
2022/03/10 17:50:24;;;;;;;;;;;;;;;3.18;29.30;101191.47;4382071;32;35811;-82
2022/03/10 17:52:52;;;;;;;;;;;;;;;3.22;29.26;101193.91;4402975;32;34499;-86
2022/03/10 17:55:20;;;;;;;;;;;;;;;3.27;29.01;101193.69;4377948;32;34814;-83
2022/03/10 17:57:48;;;;;;;;;;;;;;;3.08;29.16;101200.66;4375980;32;33224;-80
2022/03/10 18:00:16;;;;;;;;;;;;;;;3.10;29.04;101210.19;4402310;32;33017;-80
2022/03/10 18:02:47;;;;;;;;;;;;;;;2.86;29.51;101210.34;4398803;32;33052;-81
2022/03/10 18:05:14;;;;;;;;;;;;;;;2.82;29.81;101214.88;4399592;32;33105;-83
2022/03/10 18:07:42;;;;;;;;;;;;;;;2.98;29.77;101218.59;4393322;32;35337;-79
2022/03/10 18:10:11;;;;;;;;;;;;;;;2.85;30.26;101217.38;4389296;32;34463;-80
2022/03/10 18:12:39;;;;;;;;;;;;;;;2.92;30.00;101220.59;4384713;32;32603;-80
2022/03/10 18:15:09;;;;;;;;;;;;;;;2.96;30.03;101225.66;4392417;32;34868;-83
2022/03/10 18:17:37;;;;;;;;;;;;;;;3.19;29.96;101235.25;4402569;32;36321;-82
2022/03/10 18:20:05;;;;;;;;;;;;;;;3.05;30.54;101242.84;4407687;32;34626;-80
2022/03/10 18:22:33;;;;;;;;;;;;;;;3.02;30.34;101241.19;4376947;32;31958;-81
2022/03/10 18:25:00;;;;;;;;;;;;;;;3.10;30.54;101257.53;4403209;32;33774;-78
2022/03/10 18:27:30;;;;;;;;;;;;;;;2.92;30.49;101263.50;4407681;32;35247;-80
2022/03/10 18:29:58;;;;;;;;;;;;;;;3.39;30.27;101265.06;4393895;32;34694;-79
2022/03/10 18:32:26;;;;;;;;;;;;;;;3.61;30.02;101265.84;4404533;32;33582;-79
2022/03/10 18:34:54;;;;;;;;;;;;;;;3.64;30.25;101275.41;4397344;32;34881;-85
2022/03/10 18:37:22;;;;;;;;;;;;;;;3.76;30.01;101273.09;4402534;32;35728;-79
2022/03/10 18:39:49;;;;;;;;;;;;;;;3.66;30.55;101284.94;4408657;32;34818;-80
2022/03/10 18:42:17;;;;;;;;;;;;;;;3.39;31.89;101290.50;4398995;32;33290;-87
2022/03/10 18:44:45;;;;;;;;;;;;;;;3.09;31.98;101286.50;4387874;32;33418;-82
2022/03/10 18:47:13;;;;;;;;;;;;;;;3.72;30.93;101289.09;4398351;32;34615;-82
2022/03/10 18:49:41;;;;;;;;;;;;;;;4.01;30.39;101284.28;4394926;32;32396;-82
2022/03/10 18:52:08;;;;;;;;;;;;;;;3.50;30.85;101302.28;4408715;32;33481;-81
2022/03/10 18:54:36;;;;;;;;;;;;;;;3.68;31.28;101295.41;4391040;32;35004;-79
2022/03/10 18:57:03;;;;;;;;;;;;;;;3.42;31.34;101304.37;4400998;32;34990;-81
2022/03/10 18:59:31;;;;;;;;;;;;;;;3.60;30.99;101306.25;4388810;32;33611;-80
2022/03/10 19:01:59;;;;;;;;;;;;;;;3.73;30.93;101309.22;4403494;32;33980;-82
2022/03/10 19:04:27;;;;;;;;;;;;;;;3.21;31.43;101320.19;4389077;32;33215;-83
2022/03/10 19:06:57;;;;;;;;;;;;;;;2.73;32.19;101319.47;4376102;32;35242;-80
2022/03/10 19:09:24;;;;;;;;;;;;;;;2.81;32.19;101328.78;4402725;32;34725;-80
2022/03/10 19:11:53;;;;;;;;;;;;;;;2.82;32.19;101321.75;4403905;32;33388;-80
2022/03/10 19:14:21;;;;;;;;;;;;;;;2.60;33.36;101325.25;4408840;32;34953;-81
2022/03/10 19:16:49;;;;;;;;;;;;;;;2.49;32.47;101324.78;4407111;32;34932;-78
2022/03/10 19:19:17;;;;;;;;;;;;;;;2.70;32.35;101330.09;4405386;32;34616;-80
2022/03/10 19:21:45;;;;;;;;;;;;;;;2.44;32.66;101329.38;4407412;32;32964;-78
2022/03/10 19:24:13;;;;;;;;;;;;;;;2.28;33.12;101341.34;4404249;32;34083;-79
2022/03/10 19:26:41;;;;;;;;;;;;;;;2.28;33.21;101342.22;4389243;32;34783;-79
2022/03/10 19:29:08;;;;;;;;;;;;;;;2.64;32.44;101350.50;4397429;32;34912;-79
2022/03/10 19:31:36;;;;;;;;;;;;;;;2.81;32.42;101354.19;4402162;32;33480;-81
2022/03/10 19:34:04;;;;;;;;;;;;;;;2.72;32.16;101345.81;4390562;32;34317;-81
2022/03/10 19:36:32;;;;;;;;;;;;;;;3.04;31.75;101352.41;4397743;32;35459;-80
2022/03/10 19:38:59;;;;;;;;;;;;;;;3.06;31.55;101347.94;4400823;32;35466;-81
2022/03/10 19:41:27;;;;;;;;;;;;;;;3.06;31.52;101353.19;4402776;32;33353;-80
2022/03/10 19:43:54;;;;;;;;;;;;;;;3.09;31.57;101357.47;4386818;32;32420;-79
2022/03/10 19:46:25;;;;;;;;;;;;;;;2.66;31.64;101348.66;4386829;32;34454;-83
2022/03/10 19:49:06;;;;;;;;;;;;;;;2.79;31.99;101362.16;4398185;32;34573;-80
2022/03/10 19:51:34;;;;;;;;;;;;;;;3.13;31.52;101369.59;4389967;32;33416;-80
2022/03/10 19:54:02;;;;;;;;;;;;;;;2.70;32.04;101369.50;4392929;32;34647;-79
2022/03/10 19:56:29;;;;;;;;;;;;;;;2.87;32.11;101372.37;4390849;32;36158;-80
2022/03/10 19:58:58;;;;;;;;;;;;;;;3.16;31.32;101374.72;4406904;32;34330;-80
2022/03/10 20:01:26;;;;;;;;;;;;;;;2.84;31.58;101375.13;4391696;32;31798;-80
2022/03/10 20:03:56;;;;;;;;;;;;;;;2.91;31.02;101381.84;4391419;32;34142;-80
2022/03/10 20:06:25;;;;;;;;;;;;;;;2.57;31.77;101372.66;4406147;32;36188;-80
2022/03/10 20:08:54;;;;;;;;;;;;;;;2.18;32.98;101381.97;4402394;32;35036;-83
2022/03/10 20:11:22;;;;;;;;;;;;;;;2.26;32.83;101382.56;4405101;32;34623;-81
2022/03/10 20:13:49;;;;;;;;;;;;;;;2.56;32.55;101382.31;4398678;32;33434;-81
2022/03/10 20:16:16;;;;;;;;;;;;;;;2.26;33.23;101386.03;4406548;32;34003;-81
2022/03/10 20:18:44;;;;;;;;;;;;;;;2.24;33.58;101387.84;4386579;32;34454;-83
2022/03/10 20:21:13;;;;;;;;;;;;;;;2.32;32.89;101390.19;4378277;32;33037;-81
2022/03/10 20:23:41;;;;;;;;;;;;;;;2.27;33.32;101390.34;4387634;32;32635;-83
2022/03/10 20:26:10;;;;;;;;;;;;;;;1.90;33.55;101395.16;4386007;32;36118;-82
2022/03/10 20:28:42;;;;;;;;;;;;;;;2.02;33.62;101389.50;4387379;32;32989;-80
2022/03/10 20:31:10;;;;;;;;;;;;;;;1.96;33.56;101399.37;4388213;32;33491;-82
2022/03/10 20:33:38;;;;;;;;;;;;;;;1.87;33.86;101397.91;4390060;32;35407;-81
2022/03/10 20:36:07;;;;;;;;;;;;;;;1.70;34.18;101394.97;4388023;32;35326;-82
2022/03/10 20:38:34;;;;;;;;;;;;;;;1.81;33.96;101394.62;4397974;32;34258;-83
2022/03/10 20:41:02;;;;;;;;;;;;;;;1.46;34.70;101403.66;4398515;32;33087;-82
2022/03/10 20:43:32;;;;;;;;;;;;;;;1.51;34.49;101403.50;4397290;32;32402;-82
2022/03/10 20:46:00;;;;;;;;;;;;;;;1.07;35.43;101402.25;4389393;32;35144;-80
2022/03/10 20:48:28;;;;;;;;;;;;;;;1.03;36.29;101411.09;4407293;32;34308;-81
2022/03/10 20:50:55;;;;;;;;;;;;;;;1.16;35.27;101399.37;4384342;32;32539;-81
2022/03/10 20:53:24;;;;;;;;;;;;;;;1.19;35.31;101412.38;4387388;32;35825;-81
2022/03/10 20:55:52;;;;;;;;;;;;;;;1.28;35.07;101405.97;4405882;32;35564;-81
2022/03/10 20:58:22;;;;;;;;;;;;;;;1.29;35.05;101402.44;4399306;32;33926;-79
2022/03/10 21:00:50;;;;;;;;;;;;;;;1.59;34.40;101398.88;4403763;32;34223;-81
2022/03/10 21:03:17;;;;;;;;;;;;;;;1.50;34.67;101402.63;4407570;32;33119;-78
2022/03/10 21:05:44;;;;;;;;;;;;;;;1.24;35.60;101405.19;4402509;32;35011;-80
2022/03/10 21:08:12;;;;;;;;;;;;;;;1.51;35.01;101406.13;4391324;32;35145;-78
2022/03/10 21:10:39;;;;;;;;;;;;;;;1.43;35.05;101408.12;4400225;32;32911;-78
2022/03/10 21:13:06;;;;;;;;;;;;;;;1.28;35.21;101411.22;4404385;32;33799;-78
2022/03/10 21:15:35;;;;;;;;;;;;;;;1.45;35.66;101406.31;4396387;32;34595;-78
2022/03/10 21:18:02;;;;;;;;;;;;;;;1.30;35.35;101415.50;4402698;32;35125;-79
2022/03/10 21:20:30;;;;;;;;;;;;;;;1.10;35.90;101415.25;4401733;32;33659;-78
2022/03/10 21:22:58;;;;;;;;;;;;;;;1.15;36.00;101418.59;4404793;32;33216;-81
2022/03/10 21:25:25;;;;;;;;;;;;;;;1.25;35.82;101417.41;4410407;32;33624;-78
2022/03/10 21:27:52;;;;;;;;;;;;;;;1.09;36.50;101431.91;4396150;32;34306;-78
2022/03/10 21:30:22;;;;;;;;;;;;;;;1.37;35.30;101427.53;4404919;32;31729;-79
2022/03/10 21:32:49;;;;;;;;;;;;;;;1.40;35.24;101426.59;4392028;32;33285;-78
2022/03/10 21:35:16;;;;;;;;;;;;;;;1.64;34.85;101434.53;4404450;32;36298;-78
2022/03/10 21:37:44;;;;;;;;;;;;;;;1.66;35.05;101427.47;4411154;32;34884;-78
2022/03/10 21:40:12;;;;;;;;;;;;;;;1.66;34.81;101437.97;4378527;32;32161;-78
2022/03/10 21:42:39;;;;;;;;;;;;;;;1.63;35.17;101434.56;4399981;32;34435;-77
2022/03/10 21:45:08;;;;;;;;;;;;;;;1.68;34.62;101430.06;4397469;32;34864;-78
2022/03/10 21:47:36;;;;;;;;;;;;;;;1.54;34.96;101435.72;4394541;32;34051;-78
2022/03/10 21:50:04;;;;;;;;;;;;;;;1.65;34.83;101432.75;4400437;32;32744;-78
2022/03/10 21:52:51;;;;;;;;;;;;;;;1.25;35.60;101438.38;4406244;32;34913;-77
2022/03/10 21:55:18;;;;;;;;;;;;;;;1.56;35.01;101446.16;4406852;32;34311;-79
2022/03/10 21:57:47;;;;;;;;;;;;;;;1.41;34.98;101439.63;4408518;32;34216;-78
2022/03/10 22:00:15;;;;;;;;;;;;;;;1.36;35.09;101449.41;4399592;32;33013;-81
2022/03/10 22:02:42;;;;;;;;;;;;;;;1.33;35.41;101446.87;4391783;32;33872;-81
2022/03/10 22:05:10;;;;;;;;;;;;;;;0.96;35.47;101441.00;4391253;32;34685;-82
2022/03/10 22:07:37;;;;;;;;;;;;;;;0.91;35.93;101449.91;4399703;32;33780;-80
2022/03/10 22:10:05;;;;;;;;;;;;;;;0.94;35.80;101452.47;4386290;32;33222;-80
2022/03/10 22:12:33;;;;;;;;;;;;;;;1.02;35.35;101453.06;4399009;32;33951;-80
2022/03/10 22:15:01;;;;;;;;;;;;;;;1.03;35.64;101457.44;4404124;32;35337;-80
2022/03/10 22:17:28;;;;;;;;;;;;;;;0.97;35.64;101452.34;4402995;32;34409;-80
2022/03/10 22:19:55;;;;;;;;;;;;;;;0.58;36.49;101456.09;4394119;32;32981;-80
2022/03/10 22:22:23;;;;;;;;;;;;;;;0.40;36.38;101454.81;4389367;32;32874;-81
2022/03/10 22:24:52;;;;;;;;;;;;;;;0.50;36.23;101460.69;4391366;32;35278;-80
2022/03/10 22:27:20;;;;;;;;;;;;;;;0.40;36.59;101467.06;4405583;32;35430;-80
2022/03/10 22:29:47;;;;;;;;;;;;;;;0.59;36.41;101463.06;4385884;32;34212;-80
2022/03/10 22:32:15;;;;;;;;;;;;;;;0.68;35.93;101470.66;4407954;32;33687;-79
2022/03/10 22:34:43;;;;;;;;;;;;;;;0.63;36.57;101472.53;4391845;32;34456;-79
2022/03/10 22:37:10;;;;;;;;;;;;;;;0.91;35.46;101470.87;4391014;32;35152;-80
2022/03/10 22:39:37;;;;;;;;;;;;;;;0.98;35.51;101464.56;4408399;32;34033;-80
2022/03/10 22:42:05;;;;;;;;;;;;;;;0.59;35.75;101469.12;4390764;32;34920;-80
2022/03/10 22:44:32;;;;;;;;;;;;;;;0.41;36.04;101461.78;4400979;32;35077;-80
2022/03/10 22:47:00;;;;;;;;;;;;;;;0.33;36.44;101475.97;4393794;32;35301;-80
2022/03/10 22:49:27;;;;;;;;;;;;;;;0.32;36.59;101474.25;4390483;32;34003;-80
2022/03/10 22:54:41;;;;;;;;;;;;;;;0.43;36.27;101462.62;4398704;32;34686;-80
2022/03/10 22:57:08;;;;;;;;;;;;;;;0.25;36.36;101477.94;4391761;32;33578;-81
2022/03/10 22:59:36;;;;;;;;;;;;;;;0.11;36.74;101467.81;4401988;32;33846;-80
2022/03/10 23:02:03;;;;;;;;;;;;;;;0.27;36.58;101479.62;4394942;32;34291;-81
2022/03/10 23:07:26;;;;;;;;;;;;;;;0.24;36.43;101474.47;4406430;32;35150;-80
2022/03/10 23:09:53;;;;;;;;;;;;;;;0.54;35.95;101471.03;4407046;32;33688;-80
2022/03/10 23:12:22;;;;;;;;;;;;;;;0.49;36.19;101469.44;4390353;32;33795;-80
2022/03/10 23:14:49;;;;;;;;;;;;;;;0.67;35.57;101469.78;4391853;32;35228;-81
2022/03/10 23:17:17;;;;;;;;;;;;;;;0.79;35.40;101466.84;4408013;32;34753;-80
2022/03/10 23:19:44;;;;;;;;;;;;;;;0.64;35.58;101477.75;4391997;32;33662;-80
2022/03/10 23:22:12;;;;;;;;;;;;;;;0.34;35.82;101475.94;4389187;32;33646;-81
2022/03/10 23:24:39;;;;;;;;;;;;;;;0.06;36.63;101468.84;4399412;32;34999;-80
2022/03/10 23:27:07;;;;;;;;;;;;;;;0.33;35.95;101478.59;4404958;32;34844;-80
2022/03/10 23:29:35;;;;;;;;;;;;;;;0.42;35.35;101460.03;4393644;32;31587;-80
2022/03/10 23:32:03;;;;;;;;;;;;;;;0.29;35.88;101476.97;4404856;32;32990;-80
2022/03/10 23:34:31;;;;;;;;;;;;;;;0.40;35.55;101469.69;4406872;32;35292;-79
2022/03/10 23:36:58;;;;;;;;;;;;;;;0.26;35.59;101471.78;4414689;32;34794;-80
2022/03/10 23:39:25;;;;;;;;;;;;;;;-0.14;36.49;101472.81;4404200;32;33277;-79
2022/03/10 23:41:53;;;;;;;;;;;;;;;-0.18;36.47;101466.84;4401709;32;32496;-80
2022/03/10 23:44:20;;;;;;;;;;;;;;;-0.39;37.03;101482.16;4409825;32;35956;-79
2022/03/10 23:46:48;;;;;;;;;;;;;;;-0.25;36.78;101480.06;4410507;32;34796;-79
2022/03/10 23:49:17;;;;;;;;;;;;;;;0.04;36.13;101475.88;4411170;32;33720;-81
2022/03/10 23:51:45;;;;;;;;;;;;;;;-0.18;36.42;101479.91;4389995;32;32791;-80
2022/03/10 23:54:14;;;;;;;;;;;;;;;-0.26;36.80;101489.69;4409523;32;34545;-79
2022/03/10 23:56:43;;;;;;;;;;;;;;;0.03;36.05;101480.22;4383059;32;33931;-80
2022/03/10 23:59:10;;;;;;;;;;;;;;;-0.19;36.12;101483.41;4384123;32;33061;-79
